createdAt,value
2019-05-23T00:02:35.124Z,16.00
2019-05-23T00:08:00.896Z,15.90
2019-05-23T00:13:49.668Z,15.90
2019-05-23T00:19:14.209Z,15.70
2019-05-23T00:24:41.150Z,15.70
2019-05-23T00:30:06.086Z,15.70
2019-05-23T00:35:31.312Z,15.60
2019-05-23T00:40:54.998Z,15.60
2019-05-23T00:46:19.141Z,15.50
2019-05-23T00:51:43.675Z,15.50
2019-05-23T00:57:09.997Z,15.40
2019-05-23T01:02:34.500Z,15.40
2019-05-23T01:07:58.544Z,15.30
2019-05-23T01:13:23.623Z,15.30
2019-05-23T01:18:47.408Z,15.20
2019-05-23T01:24:22.174Z,15.20
2019-05-23T01:29:50.087Z,15.10
2019-05-23T01:35:17.383Z,15.00
2019-05-23T01:40:41.503Z,14.80
2019-05-23T01:46:05.339Z,14.80
2019-05-23T01:51:30.606Z,14.80
2019-05-23T01:56:54.066Z,14.60
2019-05-23T02:02:19.266Z,14.60
2019-05-23T02:07:42.972Z,14.40
2019-05-23T02:13:08.944Z,13.50
2019-05-23T02:18:33.871Z,13.40
2019-05-23T02:23:57.772Z,13.40
2019-05-23T02:29:22.850Z,12.80
2019-05-23T02:34:47.513Z,12.40
2019-05-23T02:40:18.453Z,12.70
2019-05-23T02:45:45.527Z,12.80
2019-05-23T02:51:14.599Z,13.10
2019-05-23T02:56:40.096Z,12.70
2019-05-23T03:02:43.886Z,12.40
2019-05-23T03:08:10.362Z,12.40
2019-05-23T03:13:38.065Z,13.00
2019-05-23T03:19:05.624Z,12.70
2019-05-23T03:24:28.770Z,13.10
2019-05-23T03:29:53.828Z,13.60
2019-05-23T03:35:25.025Z,13.90
2019-05-23T03:40:48.659Z,13.80
2019-05-23T03:46:13.487Z,12.80
2019-05-23T03:51:37.156Z,13.30
2019-05-23T03:57:00.572Z,13.50
2019-05-23T04:02:26.583Z,12.70
2019-05-23T04:07:51.600Z,12.10
2019-05-23T04:13:15.393Z,11.70
2019-05-23T04:18:38.580Z,11.70
2019-05-23T04:24:02.917Z,12.70
2019-05-23T04:29:28.097Z,12.40
2019-05-23T04:34:52.865Z,12.50
2019-05-23T04:40:16.748Z,12.80
2019-05-23T04:45:42.014Z,12.60
2019-05-23T04:51:05.794Z,12.20
2019-05-23T04:56:30.640Z,12.50
2019-05-23T05:01:56.416Z,12.20
2019-05-23T05:07:20.366Z,12.40
2019-05-23T05:12:44.952Z,12.40
2019-05-23T05:18:09.831Z,12.80
2019-05-23T05:23:33.510Z,12.50
2019-05-23T05:28:57.669Z,12.60
2019-05-23T05:34:20.761Z,12.70
2019-05-23T05:39:43.829Z,13.00
2019-05-23T05:45:08.145Z,13.60
2019-05-23T05:50:31.616Z,13.60
2019-05-23T05:55:55.188Z,13.80
2019-05-23T06:01:32.736Z,14.50
2019-05-23T06:06:52.182Z,15.70
2019-05-23T06:12:15.880Z,15.60
2019-05-23T06:17:40.083Z,16.10
2019-05-23T06:23:05.544Z,15.10
2019-05-23T06:28:29.291Z,15.60
2019-05-23T06:33:54.356Z,16.50
2019-05-23T06:39:17.912Z,17.90
2019-05-23T06:44:42.127Z,17.80
2019-05-23T06:50:10.399Z,16.80
2019-05-23T06:55:34.616Z,18.00
2019-05-23T07:00:58.071Z,19.40
2019-05-23T07:06:24.477Z,18.10
2019-05-23T07:11:48.205Z,19.30
2019-05-23T07:17:13.031Z,20.00
2019-05-23T07:22:36.779Z,21.00
2019-05-23T07:28:00.535Z,22.10
2019-05-23T07:33:24.224Z,22.00
2019-05-23T07:38:47.581Z,21.00
2019-05-23T07:44:11.829Z,21.70
2019-05-23T07:49:35.202Z,20.60
2019-05-23T07:55:03.667Z,23.60
2019-05-23T08:00:31.171Z,22.90
2019-05-23T08:05:54.842Z,21.80
2019-05-23T08:11:18.792Z,23.20
2019-05-23T08:16:42.208Z,24.00
2019-05-23T08:22:06.367Z,23.10
2019-05-23T08:27:30.295Z,22.90
2019-05-23T08:32:54.692Z,24.60
2019-05-23T08:38:19.706Z,24.10
2019-05-23T08:43:43.407Z,26.00
2019-05-23T08:49:09.072Z,24.90
2019-05-23T08:54:33.203Z,24.60
2019-05-23T08:59:56.705Z,25.50
2019-05-23T09:05:21.521Z,26.00
2019-05-23T09:10:44.347Z,28.50
2019-05-23T09:16:07.655Z,25.60
2019-05-23T09:21:31.717Z,27.00
2019-05-23T09:26:55.293Z,26.60
2019-05-23T09:32:19.236Z,25.40
2019-05-23T09:37:42.438Z,27.00
2019-05-23T09:43:06.427Z,29.10
2019-05-23T09:48:29.611Z,28.10
2019-05-23T09:53:52.306Z,25.50
2019-05-23T09:59:15.670Z,27.00
2019-05-23T10:04:38.794Z,29.90
2019-05-23T10:10:03.183Z,28.30
2019-05-23T10:15:49.643Z,29.40
2019-05-23T10:21:13.146Z,28.40
2019-05-23T10:26:37.026Z,27.90
2019-05-23T10:32:00.803Z,29.40
2019-05-23T10:37:24.604Z,27.90
2019-05-23T10:42:47.767Z,28.70
2019-05-23T10:48:11.957Z,27.20
2019-05-23T10:53:35.358Z,26.70
2019-05-23T10:58:58.866Z,29.00
2019-05-23T11:04:22.349Z,27.20
2019-05-23T11:09:46.191Z,25.80
2019-05-23T11:15:10.650Z,27.20
2019-05-23T11:20:36.090Z,27.90
2019-05-23T11:26:01.607Z,29.10
2019-05-23T11:31:25.430Z,30.00
2019-05-23T11:36:48.653Z,30.80
2019-05-23T11:42:11.791Z,29.70
2019-05-23T11:47:35.290Z,28.20
2019-05-23T11:52:59.593Z,27.90
2019-05-23T11:58:23.784Z,29.90
2019-05-23T12:03:50.580Z,29.10
2019-05-23T12:09:18.674Z,28.30
2019-05-23T12:14:42.718Z,30.00
2019-05-23T12:20:07.029Z,31.00
2019-05-23T12:25:31.840Z,29.90
2019-05-23T12:30:55.390Z,27.80
2019-05-23T12:36:18.524Z,27.70
2019-05-23T12:41:42.333Z,28.10
2019-05-23T12:47:07.487Z,29.40
2019-05-23T12:52:32.305Z,29.20
2019-05-23T12:57:55.419Z,29.60
2019-05-23T13:03:19.218Z,29.20
2019-05-23T13:08:43.155Z,29.90
2019-05-23T13:14:06.696Z,28.80
2019-05-23T13:19:30.199Z,28.20
2019-05-23T13:24:53.609Z,27.30
2019-05-23T13:30:17.532Z,28.90
2019-05-23T13:35:42.037Z,27.90
2019-05-23T13:41:05.979Z,29.20
2019-05-23T13:46:29.386Z,27.80
2019-05-23T13:51:52.904Z,26.00
2019-05-23T13:57:17.061Z,28.80
2019-05-23T14:02:40.803Z,29.80
2019-05-23T14:08:12.410Z,30.60
2019-05-23T14:13:30.123Z,30.50
2019-05-23T14:18:53.626Z,29.90
2019-05-23T14:24:17.604Z,28.80
2019-05-23T14:29:41.260Z,28.60
2019-05-23T14:35:05.226Z,26.90
2019-05-23T14:40:30.051Z,28.60
2019-05-23T14:46:11.526Z,26.40
2019-05-23T14:51:52.331Z,28.00
2019-05-23T14:57:16.196Z,27.10
2019-05-23T15:02:40.236Z,27.90
2019-05-23T15:08:03.514Z,27.10
2019-05-23T15:13:26.895Z,29.00
2019-05-23T15:18:50.407Z,28.30
2019-05-23T15:24:14.298Z,28.70
2019-05-23T15:29:37.818Z,27.90
2019-05-23T15:35:00.973Z,28.70
2019-05-23T15:40:24.724Z,28.40
2019-05-23T15:45:49.009Z,29.40
2019-05-23T15:51:14.583Z,29.60
2019-05-23T15:57:03.118Z,28.60
2019-05-23T16:02:34.424Z,28.60
2019-05-23T16:07:57.879Z,28.70
2019-05-23T16:13:21.845Z,27.30
2019-05-23T16:18:46.414Z,27.90
2019-05-23T16:24:11.419Z,25.80
2019-05-23T16:29:35.636Z,27.10
2019-05-23T16:34:59.280Z,27.60
2019-05-23T16:40:23.149Z,27.80
2019-05-23T16:45:46.752Z,27.60
2019-05-23T16:51:10.397Z,28.10
2019-05-23T16:56:45.368Z,27.70
2019-05-23T17:02:26.643Z,25.90
2019-05-23T17:08:08.855Z,26.20
2019-05-23T17:13:46.251Z,25.90
2019-05-23T17:19:26.789Z,25.80
2019-05-23T17:24:58.146Z,26.10
2019-05-23T17:30:33.971Z,25.50
2019-05-23T17:35:57.342Z,24.80
2019-05-23T17:41:21.543Z,24.90
2019-05-23T17:46:45.379Z,24.70
2019-05-23T17:52:08.967Z,24.50
2019-05-23T17:57:32.312Z,24.50
2019-05-23T18:02:56.342Z,24.10
2019-05-23T18:08:19.938Z,24.10
2019-05-23T18:13:43.858Z,24.00
2019-05-23T18:19:07.667Z,23.90
2019-05-23T18:24:30.963Z,24.20
2019-05-23T18:29:54.068Z,24.20
2019-05-23T18:35:18.027Z,23.90
2019-05-23T18:40:42.650Z,24.10
2019-05-23T18:46:11.112Z,23.90
2019-05-23T18:51:34.755Z,23.60
2019-05-23T18:56:58.915Z,23.20
2019-05-23T19:02:24.220Z,23.10
2019-05-23T19:07:48.468Z,22.80
2019-05-23T19:13:12.766Z,22.60
2019-05-23T19:18:37.678Z,22.40
2019-05-23T19:24:02.201Z,22.30
2019-05-23T19:29:26.834Z,22.10
2019-05-23T19:34:51.093Z,22.00
2019-05-23T19:40:15.366Z,21.70
2019-05-23T19:45:39.731Z,21.70
2019-05-23T19:51:03.508Z,21.60
2019-05-23T19:56:27.827Z,21.40
2019-05-23T20:02:10.420Z,21.30
2019-05-23T20:07:34.686Z,21.10
2019-05-23T20:12:58.815Z,21.10
2019-05-23T20:18:23.859Z,21.10
2019-05-23T20:23:47.319Z,21.00
2019-05-23T20:29:11.685Z,21.00
2019-05-23T20:34:36.100Z,20.90
2019-05-23T20:40:00.256Z,20.90
2019-05-23T20:45:24.682Z,20.80
2019-05-23T20:50:48.355Z,20.80
2019-05-23T20:56:12.374Z,20.70
2019-05-23T21:01:40.072Z,20.60
2019-05-23T21:07:04.098Z,20.50
2019-05-23T21:12:30.399Z,20.30
2019-05-23T21:17:53.196Z,20.20
2019-05-23T21:23:17.074Z,20.10
2019-05-23T21:28:42.140Z,19.90
2019-05-23T21:34:06.341Z,19.60
2019-05-23T21:39:30.549Z,19.30
2019-05-23T21:44:54.567Z,19.40
2019-05-23T21:50:18.374Z,19.60
2019-05-23T21:55:45.793Z,19.70
2019-05-23T22:01:37.624Z,19.10
2019-05-23T22:07:06.201Z,18.70
2019-05-23T22:12:30.177Z,18.90
2019-05-23T22:17:54.093Z,19.00
2019-05-23T22:23:18.135Z,18.70
2019-05-23T22:28:41.753Z,18.70
2019-05-23T22:34:19.330Z,18.80
2019-05-23T22:39:43.573Z,18.20
2019-05-23T22:45:12.775Z,18.40
2019-05-23T22:50:36.385Z,18.60
2019-05-23T22:56:00.060Z,18.20
2019-05-23T23:01:25.603Z,18.40
2019-05-23T23:06:48.952Z,18.70
2019-05-23T23:12:12.786Z,18.80
2019-05-23T23:17:35.867Z,18.90
2019-05-23T23:22:59.459Z,18.80
2019-05-23T23:28:22.461Z,18.80
2019-05-23T23:33:45.663Z,18.70
2019-05-23T23:39:09.590Z,18.60
2019-05-23T23:44:35.283Z,18.60
2019-05-23T23:50:16.820Z,18.60
2019-05-23T23:55:58.521Z,18.40
